Orion Explorer — LNDT — position and weather

sailwx.info

Track history (hours):
 
Tides and Currents Weather Stations Pressure Air Temp Water Temp Dewpoint Dewpoint Depression Visibility Wind Speed Wind Dir Waves Ship Positions

Orion Explorer

Last reported at 2017-Jun-23 08:30 UTC. Time now 2017-Jun-23 08:44 UTC.
Position N 69°54' E 018°29'.

Length 59 m; draft 4.5 m.

Type: Cargo ship. MMSI: 259496000.

Date/timePositionNaut miles runAvg speedWind from/ knotsBaromVisibWave heightAir tempDewpointWater temp
2017-Jun-23 08:30N 69°54' E 018°29'2 4.6
2017-Jun-23 08:00N 69°53' E 018°23'510.8
2017-Jun-23 07:30N 69°50' E 018°10'510.8
2017-Jun-23 07:00N 69°47' E 017°57'510.5
2017-Jun-23 06:30N 69°43' E 017°45'510.4
2017-Jun-23 06:00N 69°40' E 017°33'510.3
2017-Jun-23 05:30N 69°37' E 017°21'510.2
2017-Jun-23 05:00N 69°34' E 017°09'510.2
2017-Jun-23 04:30N 69°31' E 016°58'510.3
2017-Jun-23 04:00N 69°27' E 016°49'510.2
2017-Jun-23 03:30N 69°23' E 016°41'510.3
2017-Jun-23 02:59N 69°18' E 016°33'510.3
2017-Jun-23 02:30N 69°14' E 016°25'510.4
2017-Jun-23 02:00N 69°10' E 016°17'510.8
2017-Jun-23 01:29N 69°05' E 016°08'510.9
2017-Jun-23 01:00N 69°01' E 015°57'510.3
2017-Jun-23 00:30N 68°59' E 015°46'4 8.7
2017-Jun-23 00:00N 68°56' E 015°36'510.1
2017-Jun-22 23:29N 68°51' E 015°30'510.3
2017-Jun-22 23:00N 68°46' E 015°26'510.4
2017-Jun-22 22:30N 68°41' E 015°26'510.0
2017-Jun-22 22:00N 68°37' E 015°17'510.5
2017-Jun-22 21:30N 68°35' E 015°05'3 5.9
2017-Jun-22 21:00N 68°34' E 014°57'0 0.0
2017-Jun-22 20:30N 68°34' E 014°57'0 0.0
2017-Jun-22 20:00N 68°34' E 014°57'0 0.0
2017-Jun-22 19:30N 68°34' E 014°57'0 0.0
2017-Jun-22 19:00N 68°34' E 014°57'0 0.0
2017-Jun-22 18:30N 68°34' E 014°57'0 0.0
2017-Jun-22 18:00N 68°34' E 014°57'0 0.0
2017-Jun-22 17:30N 68°34' E 014°57'0 0.5
2017-Jun-22 17:00N 68°35' E 014°58'510.6
2017-Jun-22 16:30N 68°36' E 015°11'611.6
2017-Jun-22 16:00N 68°40' E 015°24'612.1
2017-Jun-22 15:30N 68°46' E 015°25'611.4
2017-Jun-22 15:00N 68°51' E 015°29'1010.5
2017-Jun-22 14:00N 68°59' E 015°49'611.5
2017-Jun-22 13:30N 69°03' E 016°01'611.1
2017-Jun-22 13:00N 69°07' E 016°11'611.5
2017-Jun-22 12:29N 69°12' E 016°20'611.5
2017-Jun-22 12:00N 69°17' E 016°29'611.5
2017-Jun-22 11:30N 69°22' E 016°38'611.5
2017-Jun-22 11:00N 69°26' E 016°47'611.4
2017-Jun-22 10:30N 69°31' E 016°57'611.7
2017-Jun-22 10:00N 69°34' E 017°10'611.7
2017-Jun-22 09:29N 69°38' E 017°24'611.6
2017-Jun-22 09:00N 69°41' E 017°37'611.4
2017-Jun-22 08:30N 69°45' E 017°50'611.6
2017-Jun-22 08:00N 69°48' E 018°03'611.2
2017-Jun-22 07:29N 69°52' E 018°17'510.9
2017-Jun-22 07:00N 69°54' E 018°31'5 9.4
2017-Jun-22 06:30N 69°54' E 018°44'2 3.0
2017-Jun-22 05:59N 69°54' E 018°49'0 0.0
2017-Jun-22 05:30N 69°54' E 018°49'0 0.0
2017-Jun-22 05:00N 69°54' E 018°49'0 0.0
2017-Jun-22 04:30N 69°54' E 018°49'0 0.0
2017-Jun-22 04:00N 69°54' E 018°49'1 1.1
2017-Jun-22 03:30N 69°54' E 018°47'510.3
2017-Jun-22 03:00N 69°55' E 018°33'510.5
2017-Jun-22 02:30N 69°52' E 018°21'610.8
2017-Jun-22 02:00N 69°49' E 018°07'511.0
2017-Jun-22 01:30N 69°46' E 017°54'611.2
2017-Jun-22 01:00N 69°42' E 017°42'510.9
2017-Jun-22 00:30N 69°39' E 017°31'510.4
2017-Jun-22 00:00N 69°34' E 017°27'510.6
2017-Jun-21 23:30N 69°29' E 017°34'0 0.4
2017-Jun-21 23:00N 69°29' E 017°34'0 0.0
2017-Jun-21 22:30N 69°29' E 017°34'0 0.0
2017-Jun-21 22:00N 69°29' E 017°34'2 3.2
2017-Jun-21 21:30N 69°30' E 017°32'510.6
2017-Jun-21 21:00N 69°33' E 017°19'5 9.8
2017-Jun-21 20:30N 69°32' E 017°05'5 9.8
2017-Jun-21 20:00N 69°29' E 016°53'510.3
2017-Jun-21 19:30N 69°24' E 016°49'510.8
2017-Jun-21 19:00N 69°19' E 016°52'610.8
2017-Jun-21 18:30N 69°15' E 017°02'0 0.4
2017-Jun-21 18:00N 69°15' E 017°02'0 0.0
2017-Jun-21 17:30N 69°15' E 017°02'1 2.9
2017-Jun-21 17:00N 69°15' E 017°05'0 0.0
2017-Jun-21 16:29N 69°15' E 017°05'0 0.0
2017-Jun-21 16:00N 69°15' E 017°05'0 0.0
2017-Jun-21 15:30N 69°15' E 017°05'0 0.0
2017-Jun-21 15:00N 69°15' E 017°05'4 8.7
2017-Jun-21 14:30N 69°14' E 016°53'28 9.6
2017-Jun-21 11:38N 68°48' E 017°11'5 7.3
2017-Jun-21 11:00N 68°43' E 017°09'47 3.3
2017-Jun-20 20:47N 68°34' E 015°01'2 0.2
2017-Jun-20 13:27N 68°34' E 014°57'0 0.0
2017-Jun-20 12:38N 68°34' E 014°57'0 0.0
2017-Jun-20 08:44N 68°34' E 014°57'52 5.4
2017-Jun-19 23:00N 68°60' E 017°03'9 9.6
2017-Jun-19 22:04N 69°05' E 017°24'110.7
2017-Jun-19 22:00N 69°05' E 017°25'611.0
2017-Jun-19 21:30N 69°08' E 017°39'510.6
2017-Jun-19 21:00N 69°10' E 017°53'4 7.9
2017-Jun-19 20:30N 69°13' E 017°59'510.3
2017-Jun-19 20:00N 69°18' E 017°58'29 4.1
2017-Jun-19 12:51N 69°39' E 018°57'0 0.0
2017-Jun-19 12:30N 69°39' E 018°57'0 0.0
2017-Jun-19 12:00N 69°39' E 018°57'0 0.0
2017-Jun-19 11:30N 69°39' E 018°57'0 0.0
2017-Jun-19 11:00N 69°39' E 018°57'0 0.0
2017-Jun-19 10:30N 69°39' E 018°57'3 6.2
2017-Jun-19 10:00N 69°41' E 019°02'510.3
2017-Jun-19 09:30N 69°46' E 019°10'510.8
2017-Jun-19 09:00N 69°48' E 019°23'511.0
2017-Jun-19 08:30N 69°50' E 019°38'611.0
2017-Jun-19 08:00N 69°53' E 019°52'611.2
2017-Jun-19 07:30N 69°57' E 020°05'510.4
2017-Jun-19 07:00N 69°60' E 020°17'510.7
2017-Jun-19 06:30N 70°01' E 020°32'510.7
2017-Jun-19 06:00N 70°03' E 020°47'510.3
2017-Jun-19 05:29N 70°06' E 020°59'611.3
2017-Jun-19 05:00N 70°11' E 021°06'510.8
2017-Jun-19 04:30N 70°15' E 021°15'610.9
2017-Jun-19 04:00N 70°19' E 021°28'510.9
2017-Jun-19 03:30N 70°23' E 021°39'510.8
2017-Jun-19 03:00N 70°25' E 021°53'611.5
2017-Jun-19 02:30N 70°27' E 022°10'611.5
2017-Jun-19 02:00N 70°28' E 022°27'611.7
2017-Jun-19 01:30N 70°30' E 022°44'611.4
2017-Jun-19 01:00N 70°32' E 022°59'611.0
2017-Jun-19 00:30N 70°36' E 023°11'611.2
2017-Jun-19 00:00N 70°40' E 023°23'611.3
2017-Jun-18 23:30N 70°44' E 023°34'510.8
2017-Jun-18 23:00N 70°48' E 023°46'511.1
2017-Jun-18 22:30N 70°51' E 023°58'510.4
2017-Jun-18 22:00N 70°55' E 024°10'510.7
2017-Jun-18 21:30N 70°59' E 024°22'510.6
2017-Jun-18 21:00N 71°02' E 024°35'510.5
2017-Jun-18 20:30N 71°00' E 024°50'510.7
2017-Jun-18 20:00N 70°59' E 025°07'510.8
2017-Jun-18 19:30N 70°59' E 025°23'4 8.7
2017-Jun-18 19:00N 70°56' E 025°33'510.9
2017-Jun-18 18:29N 70°57' E 025°49'4 7.3
2017-Jun-18 18:00N 70°59' E 025°58'3 6.5
2017-Jun-18 17:30N 70°59' E 026°08'611.6
2017-Jun-18 17:00N 71°01' E 026°25'611.4
2017-Jun-18 16:30N 71°02' E 026°41'611.4
2017-Jun-18 16:00N 71°04' E 026°58'611.5
2017-Jun-18 15:30N 71°06' E 027°15'612.1
2017-Jun-18 14:59N 71°08' E 027°33'1110.8
2017-Jun-18 14:00N 71°08' E 028°06'611.7
2017-Jun-18 13:30N 71°05' E 028°22'611.4
2017-Jun-18 13:00N 71°03' E 028°38'611.6
2017-Jun-18 12:30N 70°60' E 028°53'611.7
2017-Jun-18 12:00N 70°56' E 029°08'611.7
2017-Jun-18 11:30N 70°53' E 029°22'611.5
2017-Jun-18 10:59N 70°50' E 029°38'511.1
2017-Jun-18 10:30N 70°47' E 029°51'611.3
2017-Jun-18 10:00N 70°44' E 030°06'511.0
2017-Jun-18 09:30N 70°40' E 030°17'7 2.5
2017-Jun-18 06:38N 70°34' E 030°30'211.0
2017-Jun-18 06:29N 70°34' E 030°35'510.2
2017-Jun-18 06:00N 70°31' E 030°47'610.9
2017-Jun-18 05:30N 70°27' E 030°58'510.9
2017-Jun-18 05:00N 70°22' E 031°04'510.8
2017-Jun-18 04:30N 70°16' E 031°04'510.6
2017-Jun-18 04:00N 70°13' E 030°51'510.5
2017-Jun-18 03:30N 70°10' E 030°39'510.7
2017-Jun-18 03:00N 70°07' E 030°26'510.8
2017-Jun-18 02:30N 70°04' E 030°13'510.8
2017-Jun-18 02:00N 70°03' E 029°58'510.5
2017-Jun-18 01:29N 70°02' E 029°42'510.7
2017-Jun-18 01:00N 70°02' E 029°27'5 2.4
2017-Jun-17 23:06N 70°01' E 029°14'0 3.1
2017-Jun-17 23:00N 70°01' E 029°13'0 0.0
2017-Jun-17 22:30N 70°01' E 029°13'0 0.0
2017-Jun-17 22:00N 70°01' E 029°13'2 4.5
2017-Jun-17 21:30N 70°03' E 029°10'2 1.5
2017-Jun-17 20:17N 70°04' E 029°05'1011.1
2017-Jun-17 19:23N 70°03' E 029°34'411.1
2017-Jun-17 19:00N 70°03' E 029°47'611.1
2017-Jun-17 18:29N 70°03' E 030°03'611.2
2017-Jun-17 18:00N 70°05' E 030°19'611.4
2017-Jun-17 17:30N 70°08' E 030°32'611.4
2017-Jun-17 17:00N 70°12' E 030°45'611.7
2017-Jun-17 16:29N 70°15' E 030°59'5 9.7
2017-Jun-17 16:00N 70°20' E 031°05'510.4
2017-Jun-17 15:30N 70°25' E 031°02'510.2
2017-Jun-17 15:00N 70°29' E 030°53'1110.5
2017-Jun-17 14:00N 70°37' E 030°31'611.1
2017-Jun-17 13:29N 70°41' E 030°20'611.5
2017-Jun-17 12:59N 70°44' E 030°06'611.7
2017-Jun-17 12:30N 70°47' E 029°51'611.6
2017-Jun-17 12:00N 70°50' E 029°36'611.2
2017-Jun-17 11:30N 70°53' E 029°21'611.0
2017-Jun-17 11:00N 70°56' E 029°07'510.9
2017-Jun-17 10:30N 70°59' E 028°54'611.1
2017-Jun-17 10:00N 71°02' E 028°39'611.5
2017-Jun-17 09:30N 71°05' E 028°24'611.4
2017-Jun-17 09:00N 71°07' E 028°08'611.5
2017-Jun-17 08:30N 71°08' E 027°50'611.2
2017-Jun-17 08:00N 71°08' E 027°33'611.5
2017-Jun-17 07:30N 71°06' E 027°16'611.2
2017-Jun-17 07:00N 71°04' E 026°60'611.2
2017-Jun-17 06:30N 71°02' E 026°44'611.1
2017-Jun-17 06:00N 71°00' E 026°28'510.7
2017-Jun-17 05:30N 70°59' E 026°12'610.8
2017-Jun-17 04:59N 70°57' E 025°56'611.3
2017-Jun-17 04:30N 70°56' E 025°39'611.2
2017-Jun-17 04:00N 70°58' E 025°24'511.0
2017-Jun-17 03:30N 70°59' E 025°08'510.8
2017-Jun-17 03:00N 71°00' E 024°52'611.0
2017-Jun-17 02:30N 71°02' E 024°35'510.4
2017-Jun-17 02:00N 70°58' E 024°23'510.3
2017-Jun-17 01:30N 70°55' E 024°11'510.7
2017-Jun-17 01:00N 70°51' E 023°59'510.7
2017-Jun-17 00:29N 70°48' E 023°46'510.7
2017-Jun-16 23:59N 70°44' E 023°35'510.5
2017-Jun-16 23:29N 70°40' E 023°24'511.0
2017-Jun-16 23:00N 70°36' E 023°13'611.4
2017-Jun-16 22:30N 70°32' E 023°01'510.6
2017-Jun-16 22:00N 70°30' E 022°46'510.8
2017-Jun-16 21:30N 70°28' E 022°31'611.1
2017-Jun-16 21:00N 70°27' E 022°15'510.8
2017-Jun-16 20:30N 70°25' E 021°59'610.9
2017-Jun-16 20:00N 70°24' E 021°43'510.6
2017-Jun-16 19:30N 70°21' E 021°32'611.0
2017-Jun-16 19:00N 70°17' E 021°21'510.4
2017-Jun-16 18:30N 70°13' E 021°09'510.5
2017-Jun-16 17:59N 70°09' E 021°17'510.8
2017-Jun-16 17:30N 70°05' E 021°28'810.5
2017-Jun-16 16:47N 70°01' E 021°46'310.6
2017-Jun-16 16:30N 69°58' E 021°51'1 2.4
2017-Jun-16 16:00N 69°57' E 021°53'0 0.0
2017-Jun-16 15:29N 69°57' E 021°53'0 0.0
2017-Jun-16 14:59N 69°57' E 021°53'0 0.6
2017-Jun-16 14:30N 69°57' E 021°52'5 1.3
2017-Jun-16 10:33N 69°53' E 021°44'0 4.8
2017-Jun-16 10:30N 69°53' E 021°44'510.8
2017-Jun-16 10:00N 69°58' E 021°35'611.0
2017-Jun-16 09:30N 70°02' E 021°24'510.1
2017-Jun-16 09:00N 70°00' E 021°10'5 9.5
2017-Jun-16 08:30N 69°58' E 020°58'0 0.0
2017-Jun-16 08:00N 69°58' E 020°58'3 5.5
2017-Jun-16 07:29N 69°56' E 020°53'510.2
2017-Jun-16 07:00N 69°55' E 020°39'1 2.0
2017-Jun-16 06:30N 69°55' E 020°36'0 0.0
2017-Jun-16 06:00N 69°55' E 020°36'2 3.1
2017-Jun-16 05:30N 69°56' E 020°40'4 8.4
2017-Jun-16 05:00N 69°52' E 020°44'5 5.9
2017-Jun-16 04:12N 69°47' E 020°38'2 9.3
2017-Jun-16 04:00N 69°47' E 020°33'510.4
2017-Jun-16 03:30N 69°52' E 020°27'510.8
2017-Jun-16 03:00N 69°57' E 020°22'4 8.2
2017-Jun-16 02:30N 69°58' E 020°10'510.9
2017-Jun-16 02:00N 69°54' E 019°58'510.5
2017-Jun-16 01:29N 69°51' E 019°45'511.0
2017-Jun-16 01:00N 69°49' E 019°31'611.3
2017-Jun-16 00:30N 69°47' E 019°15'510.6
2017-Jun-16 00:00N 69°43' E 019°05'2 3.1
2017-Jun-15 23:30N 69°42' E 019°04'1 1.6
2017-Jun-15 22:59N 69°43' E 019°04'510.5
2017-Jun-15 22:30N 69°48' E 019°02'511.0
2017-Jun-15 22:00N 69°52' E 018°52'2 4.0
2017-Jun-15 21:30N 69°54' E 018°49'2 4.8
2017-Jun-15 21:00N 69°54' E 018°42'4 9.0
2017-Jun-15 20:30N 69°54' E 018°29'0 0.0
2017-Jun-15 20:00N 69°54' E 018°29'0 0.7
2017-Jun-15 19:30N 69°54' E 018°28'5 9.8
2017-Jun-15 19:00N 69°52' E 018°15'5 9.9
2017-Jun-15 18:29N 69°48' E 018°04'510.5
2017-Jun-15 18:00N 69°45' E 017°52'510.7
2017-Jun-15 17:30N 69°42' E 017°40'510.6
2017-Jun-15 17:00N 69°39' E 017°28'510.4
2017-Jun-15 16:30N 69°36' E 017°16'510.4
2017-Jun-15 16:00N 69°33' E 017°03'510.4
2017-Jun-15 15:30N 69°29' E 016°52'510.5
2017-Jun-15 15:00N 69°25' E 016°44'510.3
2017-Jun-15 14:30N 69°20' E 016°36'1010.4
2017-Jun-15 13:30N 69°12' E 016°20'610.6
2017-Jun-15 12:59N 69°07' E 016°12'510.7
2017-Jun-15 12:30N 69°03' E 016°02'510.7
2017-Jun-15 12:00N 68°60' E 015°51'510.5
2017-Jun-15 11:30N 68°58' E 015°38'510.8
2017-Jun-15 11:00N 68°53' E 015°32'611.0
2017-Jun-15 10:29N 68°48' E 015°26'611.8
2017-Jun-15 10:00N 68°42' E 015°26'510.5
2017-Jun-15 09:30N 68°38' E 015°17'510.8
2017-Jun-15 09:00N 68°35' E 015°05'3 5.7
2017-Jun-15 08:30N 68°34' E 014°57'0 0.0
2017-Jun-15 08:00N 68°34' E 014°57'0 0.0
2017-Jun-15 07:30N 68°34' E 014°57'0 0.0
2017-Jun-15 07:00N 68°34' E 014°57'0 0.0
2017-Jun-15 06:29N 68°34' E 014°57'0 0.0
2017-Jun-15 05:59N 68°34' E 014°57'0 0.0
2017-Jun-15 05:30N 68°34' E 014°57'0 0.0
2017-Jun-15 05:00N 68°34' E 014°57'0 0.0
2017-Jun-15 04:30N 68°34' E 014°57'0 0.0
2017-Jun-15 04:00N 68°34' E 014°57'0 0.0
2017-Jun-15 03:30N 68°34' E 014°57'0 0.0
2017-Jun-15 03:00N 68°34' E 014°57'0 0.0
2017-Jun-15 02:30N 68°34' E 014°57'0 0.0
2017-Jun-15 01:59N 68°34' E 014°57'0 0.0
2017-Jun-15 01:29N 68°34' E 014°57'0 0.0
2017-Jun-15 01:00N 68°34' E 014°57'0 0.0
2017-Jun-15 00:30N 68°34' E 014°57'0 0.0
2017-Jun-15 00:00N 68°34' E 014°57'0 0.0
2017-Jun-14 23:30N 68°34' E 014°57'0 0.0
2017-Jun-14 23:00N 68°34' E 014°57'0 0.0
2017-Jun-14 22:30N 68°34' E 014°57'0 0.0
2017-Jun-14 22:00N 68°34' E 014°57'0 0.0
2017-Jun-14 21:30N 68°34' E 014°57'0 0.0
2017-Jun-14 21:00N 68°34' E 014°57'0 0.0
2017-Jun-14 20:30N 68°34' E 014°57'0 0.0
2017-Jun-14 20:00N 68°34' E 014°57'0 0.0
2017-Jun-14 19:30N 68°34' E 014°57'0 0.0
2017-Jun-14 19:00N 68°34' E 014°57'3 5.3
2017-Jun-14 18:30N 68°35' E 015°04'610.9
2017-Jun-14 18:00N 68°37' E 015°17'510.3
2017-Jun-14 17:30N 68°42' E 015°26'510.9
2017-Jun-14 17:00N 68°47' E 015°26'510.5
2017-Jun-14 16:30N 68°52' E 015°31'510.7
2017-Jun-14 16:00N 68°57' E 015°36'5 9.3
2017-Jun-14 15:30N 68°59' E 015°48'610.9
2017-Jun-14 15:00N 69°02' E 015°60'1111.2
2017-Jun-14 13:59N 69°11' E 016°18'611.4
2017-Jun-14 13:30N 69°16' E 016°27'611.5
2017-Jun-14 13:00N 69°21' E 016°36'611.8
2017-Jun-14 12:30N 69°26' E 016°46'611.5
2017-Jun-14 12:00N 69°30' E 016°56'611.1
2017-Jun-14 11:30N 69°32' E 017°10'510.7
2017-Jun-14 11:00N 69°32' E 017°26'4 8.7
2017-Jun-14 10:30N 69°29' E 017°34'0 0.0
2017-Jun-14 10:00N 69°29' E 017°34'0 0.0
2017-Jun-14 09:30N 69°29' E 017°34'0 0.0
2017-Jun-14 09:00N 69°29' E 017°34'4 7.7
2017-Jun-14 08:30N 69°32' E 017°27'510.5
2017-Jun-14 08:00N 69°32' E 017°12'610.8
2017-Jun-14 07:29N 69°30' E 016°57'510.8
2017-Jun-14 07:00N 69°26' E 016°49'611.2
2017-Jun-14 06:30N 69°20' E 016°50'611.3
2017-Jun-14 06:00N 69°15' E 016°51'611.2
2017-Jun-14 05:30N 69°09' E 016°45'511.1
2017-Jun-14 05:00N 69°04' E 016°44'510.7
2017-Jun-14 04:30N 68°59' E 016°52'610.8
2017-Jun-14 04:00N 68°55' E 017°01'511.0
2017-Jun-14 03:30N 68°50' E 017°08'510.4
2017-Jun-14 03:00N 68°45' E 017°11'2 3.7
2017-Jun-14 02:30N 68°43' E 017°09'0 0.0
2017-Jun-14 01:59N 68°43' E 017°09'0 0.0
2017-Jun-14 01:30N 68°43' E 017°09'2 4.8
2017-Jun-14 01:00N 68°42' E 017°04'0 0.5
2017-Jun-14 00:30N 68°42' E 017°03'0 0.0
2017-Jun-14 00:00N 68°42' E 017°03'2 3.5
2017-Jun-13 23:30N 68°43' E 017°02'510.1
2017-Jun-13 23:00N 68°43' E 016°48'510.8
2017-Jun-13 22:30N 68°48' E 016°46'510.9
2017-Jun-13 22:00N 68°54' E 016°46'2 4.8
2017-Jun-13 21:30N 68°56' E 016°43'0 0.0
2017-Jun-13 21:00N 68°56' E 016°43'0 0.0
2017-Jun-13 20:30N 68°56' E 016°43'4 7.8
2017-Jun-13 20:00N 68°53' E 016°37'510.1
2017-Jun-13 19:30N 68°54' E 016°23'510.7
2017-Jun-13 19:00N 68°57' E 016°12'510.3
2017-Jun-13 18:30N 68°58' E 015°58'510.3
2017-Jun-13 18:00N 68°59' E 015°44'4 9.0
2017-Jun-13 17:30N 68°56' E 015°35'510.0
2017-Jun-13 16:59N 68°51' E 015°29'510.5
2017-Jun-13 16:30N 68°46' E 015°26'510.1
2017-Jun-13 16:00N 68°41' E 015°26'510.3
2017-Jun-13 15:30N 68°37' E 015°16'510.2
2017-Jun-13 15:00N 68°35' E 015°04'2 4.9
2017-Jun-13 14:30N 68°34' E 014°57'0 0.0
2017-Jun-13 13:30N 68°34' E 014°57'0 0.0
2017-Jun-13 13:00N 68°34' E 014°57'0 0.0
2017-Jun-13 12:30N 68°34' E 014°57'0 0.0
2017-Jun-13 12:00N 68°34' E 014°57'0 0.0
2017-Jun-13 11:30N 68°34' E 014°57'0 0.0
2017-Jun-13 11:00N 68°34' E 014°57'0 0.0
2017-Jun-13 10:30N 68°34' E 014°57'4 8.7
2017-Jun-13 10:00N 68°35' E 015°09'611.6
2017-Jun-13 09:30N 68°39' E 015°21'510.0
2017-Jun-13 09:00N 68°44' E 015°26'  
Track history (hours):
 
Tides and Currents Weather Stations Pressure Air Temp Water Temp Dewpoint Dewpoint Depression Visibility Wind Speed Wind Dir Waves Ship Positions

Orion Explorer

Last reported at 2017-Jun-23 08:30 UTC. Time now 2017-Jun-23 08:44 UTC.
Position N 69°54' E 018°29'.

Length 59 m; draft 4.5 m.

Type: Cargo ship. MMSI: 259496000.

Date/timePositionNaut miles runAvg speedWind from/ knotsBaromVisibWave heightAir tempDewpointWater temp
2017-Jun-23 08:30N 69°54' E 018°29'2 4.6
2017-Jun-23 08:00N 69°53' E 018°23'510.8
2017-Jun-23 07:30N 69°50' E 018°10'510.8
2017-Jun-23 07:00N 69°47' E 017°57'510.5
2017-Jun-23 06:30N 69°43' E 017°45'510.4
2017-Jun-23 06:00N 69°40' E 017°33'510.3
2017-Jun-23 05:30N 69°37' E 017°21'510.2
2017-Jun-23 05:00N 69°34' E 017°09'510.2
2017-Jun-23 04:30N 69°31' E 016°58'510.3
2017-Jun-23 04:00N 69°27' E 016°49'510.2
2017-Jun-23 03:30N 69°23' E 016°41'510.3
2017-Jun-23 02:59N 69°18' E 016°33'510.3
2017-Jun-23 02:30N 69°14' E 016°25'510.4
2017-Jun-23 02:00N 69°10' E 016°17'510.8
2017-Jun-23 01:29N 69°05' E 016°08'510.9
2017-Jun-23 01:00N 69°01' E 015°57'510.3
2017-Jun-23 00:30N 68°59' E 015°46'4 8.7
2017-Jun-23 00:00N 68°56' E 015°36'510.1
2017-Jun-22 23:29N 68°51' E 015°30'510.3
2017-Jun-22 23:00N 68°46' E 015°26'510.4
2017-Jun-22 22:30N 68°41' E 015°26'510.0
2017-Jun-22 22:00N 68°37' E 015°17'510.5
2017-Jun-22 21:30N 68°35' E 015°05'3 5.9
2017-Jun-22 21:00N 68°34' E 014°57'0 0.0
2017-Jun-22 20:30N 68°34' E 014°57'0 0.0
2017-Jun-22 20:00N 68°34' E 014°57'0 0.0
2017-Jun-22 19:30N 68°34' E 014°57'0 0.0
2017-Jun-22 19:00N 68°34' E 014°57'0 0.0
2017-Jun-22 18:30N 68°34' E 014°57'0 0.0
2017-Jun-22 18:00N 68°34' E 014°57'0 0.0
2017-Jun-22 17:30N 68°34' E 014°57'0 0.5
2017-Jun-22 17:00N 68°35' E 014°58'510.6
2017-Jun-22 16:30N 68°36' E 015°11'611.6
2017-Jun-22 16:00N 68°40' E 015°24'612.1
2017-Jun-22 15:30N 68°46' E 015°25'611.4
2017-Jun-22 15:00N 68°51' E 015°29'1010.5
2017-Jun-22 14:00N 68°59' E 015°49'611.5
2017-Jun-22 13:30N 69°03' E 016°01'611.1
2017-Jun-22 13:00N 69°07' E 016°11'611.5
2017-Jun-22 12:29N 69°12' E 016°20'611.5
2017-Jun-22 12:00N 69°17' E 016°29'611.5
2017-Jun-22 11:30N 69°22' E 016°38'611.5
2017-Jun-22 11:00N 69°26' E 016°47'611.4
2017-Jun-22 10:30N 69°31' E 016°57'611.7
2017-Jun-22 10:00N 69°34' E 017°10'611.7
2017-Jun-22 09:29N 69°38' E 017°24'611.6
2017-Jun-22 09:00N 69°41' E 017°37'611.4
2017-Jun-22 08:30N 69°45' E 017°50'611.6
2017-Jun-22 08:00N 69°48' E 018°03'611.2
2017-Jun-22 07:29N 69°52' E 018°17'510.9
2017-Jun-22 07:00N 69°54' E 018°31'5 9.4
2017-Jun-22 06:30N 69°54' E 018°44'2 3.0
2017-Jun-22 05:59N 69°54' E 018°49'0 0.0
2017-Jun-22 05:30N 69°54' E 018°49'0 0.0
2017-Jun-22 05:00N 69°54' E 018°49'0 0.0
2017-Jun-22 04:30N 69°54' E 018°49'0 0.0
2017-Jun-22 04:00N 69°54' E 018°49'1 1.1
2017-Jun-22 03:30N 69°54' E 018°47'510.3
2017-Jun-22 03:00N 69°55' E 018°33'510.5
2017-Jun-22 02:30N 69°52' E 018°21'610.8
2017-Jun-22 02:00N 69°49' E 018°07'511.0
2017-Jun-22 01:30N 69°46' E 017°54'611.2
2017-Jun-22 01:00N 69°42' E 017°42'510.9
2017-Jun-22 00:30N 69°39' E 017°31'510.4
2017-Jun-22 00:00N 69°34' E 017°27'510.6
2017-Jun-21 23:30N 69°29' E 017°34'0 0.4
2017-Jun-21 23:00N 69°29' E 017°34'0 0.0
2017-Jun-21 22:30N 69°29' E 017°34'0 0.0
2017-Jun-21 22:00N 69°29' E 017°34'2 3.2
2017-Jun-21 21:30N 69°30' E 017°32'510.6
2017-Jun-21 21:00N 69°33' E 017°19'5 9.8
2017-Jun-21 20:30N 69°32' E 017°05'5 9.8
2017-Jun-21 20:00N 69°29' E 016°53'510.3
2017-Jun-21 19:30N 69°24' E 016°49'510.8
2017-Jun-21 19:00N 69°19' E 016°52'610.8
2017-Jun-21 18:30N 69°15' E 017°02'0 0.4
2017-Jun-21 18:00N 69°15' E 017°02'0 0.0
2017-Jun-21 17:30N 69°15' E 017°02'1 2.9
2017-Jun-21 17:00N 69°15' E 017°05'0 0.0
2017-Jun-21 16:29N 69°15' E 017°05'0 0.0
2017-Jun-21 16:00N 69°15' E 017°05'0 0.0
2017-Jun-21 15:30N 69°15' E 017°05'0 0.0
2017-Jun-21 15:00N 69°15' E 017°05'4 8.7
2017-Jun-21 14:30N 69°14' E 016°53'28 9.6
2017-Jun-21 11:38N 68°48' E 017°11'5 7.3
2017-Jun-21 11:00N 68°43' E 017°09'47 3.3
2017-Jun-20 20:47N 68°34' E 015°01'2 0.2
2017-Jun-20 13:27N 68°34' E 014°57'0 0.0
2017-Jun-20 12:38N 68°34' E 014°57'0 0.0
2017-Jun-20 08:44N 68°34' E 014°57'52 5.4
2017-Jun-19 23:00N 68°60' E 017°03'9 9.6
2017-Jun-19 22:04N 69°05' E 017°24'110.7
2017-Jun-19 22:00N 69°05' E 017°25'611.0
2017-Jun-19 21:30N 69°08' E 017°39'510.6
2017-Jun-19 21:00N 69°10' E 017°53'4 7.9
2017-Jun-19 20:30N 69°13' E 017°59'510.3
2017-Jun-19 20:00N 69°18' E 017°58'29 4.1
2017-Jun-19 12:51N 69°39' E 018°57'0 0.0
2017-Jun-19 12:30N 69°39' E 018°57'0 0.0
2017-Jun-19 12:00N 69°39' E 018°57'0 0.0
2017-Jun-19 11:30N 69°39' E 018°57'0 0.0
2017-Jun-19 11:00N 69°39' E 018°57'0 0.0
2017-Jun-19 10:30N 69°39' E 018°57'3 6.2
2017-Jun-19 10:00N 69°41' E 019°02'510.3
2017-Jun-19 09:30N 69°46' E 019°10'510.8
2017-Jun-19 09:00N 69°48' E 019°23'511.0
2017-Jun-19 08:30N 69°50' E 019°38'611.0
2017-Jun-19 08:00N 69°53' E 019°52'611.2
2017-Jun-19 07:30N 69°57' E 020°05'510.4
2017-Jun-19 07:00N 69°60' E 020°17'510.7
2017-Jun-19 06:30N 70°01' E 020°32'510.7
2017-Jun-19 06:00N 70°03' E 020°47'510.3
2017-Jun-19 05:29N 70°06' E 020°59'611.3
2017-Jun-19 05:00N 70°11' E 021°06'510.8
2017-Jun-19 04:30N 70°15' E 021°15'610.9
2017-Jun-19 04:00N 70°19' E 021°28'510.9
2017-Jun-19 03:30N 70°23' E 021°39'510.8
2017-Jun-19 03:00N 70°25' E 021°53'611.5
2017-Jun-19 02:30N 70°27' E 022°10'611.5
2017-Jun-19 02:00N 70°28' E 022°27'611.7
2017-Jun-19 01:30N 70°30' E 022°44'611.4
2017-Jun-19 01:00N 70°32' E 022°59'611.0
2017-Jun-19 00:30N 70°36' E 023°11'611.2
2017-Jun-19 00:00N 70°40' E 023°23'611.3
2017-Jun-18 23:30N 70°44' E 023°34'510.8
2017-Jun-18 23:00N 70°48' E 023°46'511.1
2017-Jun-18 22:30N 70°51' E 023°58'510.4
2017-Jun-18 22:00N 70°55' E 024°10'510.7
2017-Jun-18 21:30N 70°59' E 024°22'510.6
2017-Jun-18 21:00N 71°02' E 024°35'510.5
2017-Jun-18 20:30N 71°00' E 024°50'510.7
2017-Jun-18 20:00N 70°59' E 025°07'510.8
2017-Jun-18 19:30N 70°59' E 025°23'4 8.7
2017-Jun-18 19:00N 70°56' E 025°33'510.9
2017-Jun-18 18:29N 70°57' E 025°49'4 7.3
2017-Jun-18 18:00N 70°59' E 025°58'3 6.5
2017-Jun-18 17:30N 70°59' E 026°08'611.6
2017-Jun-18 17:00N 71°01' E 026°25'611.4
2017-Jun-18 16:30N 71°02' E 026°41'611.4
2017-Jun-18 16:00N 71°04' E 026°58'611.5
2017-Jun-18 15:30N 71°06' E 027°15'612.1
2017-Jun-18 14:59N 71°08' E 027°33'1110.8
2017-Jun-18 14:00N 71°08' E 028°06'611.7
2017-Jun-18 13:30N 71°05' E 028°22'611.4
2017-Jun-18 13:00N 71°03' E 028°38'611.6
2017-Jun-18 12:30N 70°60' E 028°53'611.7
2017-Jun-18 12:00N 70°56' E 029°08'611.7
2017-Jun-18 11:30N 70°53' E 029°22'611.5
2017-Jun-18 10:59N 70°50' E 029°38'511.1
2017-Jun-18 10:30N 70°47' E 029°51'611.3
2017-Jun-18 10:00N 70°44' E 030°06'511.0
2017-Jun-18 09:30N 70°40' E 030°17'7 2.5
2017-Jun-18 06:38N 70°34' E 030°30'211.0
2017-Jun-18 06:29N 70°34' E 030°35'510.2
2017-Jun-18 06:00N 70°31' E 030°47'610.9
2017-Jun-18 05:30N 70°27' E 030°58'510.9
2017-Jun-18 05:00N 70°22' E 031°04'510.8
2017-Jun-18 04:30N 70°16' E 031°04'510.6
2017-Jun-18 04:00N 70°13' E 030°51'510.5
2017-Jun-18 03:30N 70°10' E 030°39'510.7
2017-Jun-18 03:00N 70°07' E 030°26'510.8
2017-Jun-18 02:30N 70°04' E 030°13'510.8
2017-Jun-18 02:00N 70°03' E 029°58'510.5
2017-Jun-18 01:29N 70°02' E 029°42'510.7
2017-Jun-18 01:00N 70°02' E 029°27'5 2.4
2017-Jun-17 23:06N 70°01' E 029°14'0 3.1
2017-Jun-17 23:00N 70°01' E 029°13'0 0.0
2017-Jun-17 22:30N 70°01' E 029°13'0 0.0
2017-Jun-17 22:00N 70°01' E 029°13'2 4.5
2017-Jun-17 21:30N 70°03' E 029°10'2 1.5
2017-Jun-17 20:17N 70°04' E 029°05'1011.1
2017-Jun-17 19:23N 70°03' E 029°34'411.1
2017-Jun-17 19:00N 70°03' E 029°47'611.1
2017-Jun-17 18:29N 70°03' E 030°03'611.2
2017-Jun-17 18:00N 70°05' E 030°19'611.4
2017-Jun-17 17:30N 70°08' E 030°32'611.4
2017-Jun-17 17:00N 70°12' E 030°45'611.7
2017-Jun-17 16:29N 70°15' E 030°59'5 9.7
2017-Jun-17 16:00N 70°20' E 031°05'510.4
2017-Jun-17 15:30N 70°25' E 031°02'510.2
2017-Jun-17 15:00N 70°29' E 030°53'1110.5
2017-Jun-17 14:00N 70°37' E 030°31'611.1
2017-Jun-17 13:29N 70°41' E 030°20'611.5
2017-Jun-17 12:59N 70°44' E 030°06'611.7
2017-Jun-17 12:30N 70°47' E 029°51'611.6
2017-Jun-17 12:00N 70°50' E 029°36'611.2
2017-Jun-17 11:30N 70°53' E 029°21'611.0
2017-Jun-17 11:00N 70°56' E 029°07'510.9
2017-Jun-17 10:30N 70°59' E 028°54'611.1
2017-Jun-17 10:00N 71°02' E 028°39'611.5
2017-Jun-17 09:30N 71°05' E 028°24'611.4
2017-Jun-17 09:00N 71°07' E 028°08'611.5
2017-Jun-17 08:30N 71°08' E 027°50'611.2
2017-Jun-17 08:00N 71°08' E 027°33'611.5
2017-Jun-17 07:30N 71°06' E 027°16'611.2
2017-Jun-17 07:00N 71°04' E 026°60'611.2
2017-Jun-17 06:30N 71°02' E 026°44'611.1
2017-Jun-17 06:00N 71°00' E 026°28'510.7
2017-Jun-17 05:30N 70°59' E 026°12'610.8
2017-Jun-17 04:59N 70°57' E 025°56'611.3
2017-Jun-17 04:30N 70°56' E 025°39'611.2
2017-Jun-17 04:00N 70°58' E 025°24'511.0
2017-Jun-17 03:30N 70°59' E 025°08'510.8
2017-Jun-17 03:00N 71°00' E 024°52'611.0
2017-Jun-17 02:30N 71°02' E 024°35'510.4
2017-Jun-17 02:00N 70°58' E 024°23'510.3
2017-Jun-17 01:30N 70°55' E 024°11'510.7
2017-Jun-17 01:00N 70°51' E 023°59'510.7
2017-Jun-17 00:29N 70°48' E 023°46'510.7
2017-Jun-16 23:59N 70°44' E 023°35'510.5
2017-Jun-16 23:29N 70°40' E 023°24'511.0
2017-Jun-16 23:00N 70°36' E 023°13'611.4
2017-Jun-16 22:30N 70°32' E 023°01'510.6
2017-Jun-16 22:00N 70°30' E 022°46'510.8
2017-Jun-16 21:30N 70°28' E 022°31'611.1
2017-Jun-16 21:00N 70°27' E 022°15'510.8
2017-Jun-16 20:30N 70°25' E 021°59'610.9
2017-Jun-16 20:00N 70°24' E 021°43'510.6
2017-Jun-16 19:30N 70°21' E 021°32'611.0
2017-Jun-16 19:00N 70°17' E 021°21'510.4
2017-Jun-16 18:30N 70°13' E 021°09'510.5
2017-Jun-16 17:59N 70°09' E 021°17'510.8
2017-Jun-16 17:30N 70°05' E 021°28'810.5
2017-Jun-16 16:47N 70°01' E 021°46'310.6
2017-Jun-16 16:30N 69°58' E 021°51'1 2.4
2017-Jun-16 16:00N 69°57' E 021°53'0 0.0
2017-Jun-16 15:29N 69°57' E 021°53'0 0.0
2017-Jun-16 14:59N 69°57' E 021°53'0 0.6
2017-Jun-16 14:30N 69°57' E 021°52'5 1.3
2017-Jun-16 10:33N 69°53' E 021°44'0 4.8
2017-Jun-16 10:30N 69°53' E 021°44'510.8
2017-Jun-16 10:00N 69°58' E 021°35'611.0
2017-Jun-16 09:30N 70°02' E 021°24'510.1
2017-Jun-16 09:00N 70°00' E 021°10'5 9.5
2017-Jun-16 08:30N 69°58' E 020°58'0 0.0
2017-Jun-16 08:00N 69°58' E 020°58'3 5.5
2017-Jun-16 07:29N 69°56' E 020°53'510.2
2017-Jun-16 07:00N 69°55' E 020°39'1 2.0
2017-Jun-16 06:30N 69°55' E 020°36'0 0.0
2017-Jun-16 06:00N 69°55' E 020°36'2 3.1
2017-Jun-16 05:30N 69°56' E 020°40'4 8.4
2017-Jun-16 05:00N 69°52' E 020°44'5 5.9
2017-Jun-16 04:12N 69°47' E 020°38'2 9.3
2017-Jun-16 04:00N 69°47' E 020°33'510.4
2017-Jun-16 03:30N 69°52' E 020°27'510.8
2017-Jun-16 03:00N 69°57' E 020°22'4 8.2
2017-Jun-16 02:30N 69°58' E 020°10'510.9
2017-Jun-16 02:00N 69°54' E 019°58'510.5
2017-Jun-16 01:29N 69°51' E 019°45'511.0
2017-Jun-16 01:00N 69°49' E 019°31'611.3
2017-Jun-16 00:30N 69°47' E 019°15'510.6
2017-Jun-16 00:00N 69°43' E 019°05'2 3.1
2017-Jun-15 23:30N 69°42' E 019°04'1 1.6
2017-Jun-15 22:59N 69°43' E 019°04'510.5
2017-Jun-15 22:30N 69°48' E 019°02'511.0
2017-Jun-15 22:00N 69°52' E 018°52'2 4.0
2017-Jun-15 21:30N 69°54' E 018°49'2 4.8
2017-Jun-15 21:00N 69°54' E 018°42'4 9.0
2017-Jun-15 20:30N 69°54' E 018°29'0 0.0
2017-Jun-15 20:00N 69°54' E 018°29'0 0.7
2017-Jun-15 19:30N 69°54' E 018°28'5 9.8
2017-Jun-15 19:00N 69°52' E 018°15'5 9.9
2017-Jun-15 18:29N 69°48' E 018°04'510.5
2017-Jun-15 18:00N 69°45' E 017°52'510.7
2017-Jun-15 17:30N 69°42' E 017°40'510.6
2017-Jun-15 17:00N 69°39' E 017°28'510.4
2017-Jun-15 16:30N 69°36' E 017°16'510.4
2017-Jun-15 16:00N 69°33' E 017°03'510.4
2017-Jun-15 15:30N 69°29' E 016°52'510.5
2017-Jun-15 15:00N 69°25' E 016°44'510.3
2017-Jun-15 14:30N 69°20' E 016°36'1010.4
2017-Jun-15 13:30N 69°12' E 016°20'610.6
2017-Jun-15 12:59N 69°07' E 016°12'510.7
2017-Jun-15 12:30N 69°03' E 016°02'510.7
2017-Jun-15 12:00N 68°60' E 015°51'510.5
2017-Jun-15 11:30N 68°58' E 015°38'510.8
2017-Jun-15 11:00N 68°53' E 015°32'611.0
2017-Jun-15 10:29N 68°48' E 015°26'611.8
2017-Jun-15 10:00N 68°42' E 015°26'510.5
2017-Jun-15 09:30N 68°38' E 015°17'510.8
2017-Jun-15 09:00N 68°35' E 015°05'3 5.7
2017-Jun-15 08:30N 68°34' E 014°57'0 0.0
2017-Jun-15 08:00N 68°34' E 014°57'0 0.0
2017-Jun-15 07:30N 68°34' E 014°57'0 0.0
2017-Jun-15 07:00N 68°34' E 014°57'0 0.0
2017-Jun-15 06:29N 68°34' E 014°57'0 0.0
2017-Jun-15 05:59N 68°34' E 014°57'0 0.0
2017-Jun-15 05:30N 68°34' E 014°57'0 0.0
2017-Jun-15 05:00N 68°34' E 014°57'0 0.0
2017-Jun-15 04:30N 68°34' E 014°57'0 0.0
2017-Jun-15 04:00N 68°34' E 014°57'0 0.0
2017-Jun-15 03:30N 68°34' E 014°57'0 0.0
2017-Jun-15 03:00N 68°34' E 014°57'0 0.0
2017-Jun-15 02:30N 68°34' E 014°57'0 0.0
2017-Jun-15 01:59N 68°34' E 014°57'0 0.0
2017-Jun-15 01:29N 68°34' E 014°57'0 0.0
2017-Jun-15 01:00N 68°34' E 014°57'0 0.0
2017-Jun-15 00:30N 68°34' E 014°57'0 0.0
2017-Jun-15 00:00N 68°34' E 014°57'0 0.0
2017-Jun-14 23:30N 68°34' E 014°57'0 0.0
2017-Jun-14 23:00N 68°34' E 014°57'0 0.0
2017-Jun-14 22:30N 68°34' E 014°57'0 0.0
2017-Jun-14 22:00N 68°34' E 014°57'0 0.0
2017-Jun-14 21:30N 68°34' E 014°57'0 0.0
2017-Jun-14 21:00N 68°34' E 014°57'0 0.0
2017-Jun-14 20:30N 68°34' E 014°57'0 0.0
2017-Jun-14 20:00N 68°34' E 014°57'0 0.0
2017-Jun-14 19:30N 68°34' E 014°57'0 0.0
2017-Jun-14 19:00N 68°34' E 014°57'3 5.3
2017-Jun-14 18:30N 68°35' E 015°04'610.9
2017-Jun-14 18:00N 68°37' E 015°17'510.3
2017-Jun-14 17:30N 68°42' E 015°26'510.9
2017-Jun-14 17:00N 68°47' E 015°26'510.5
2017-Jun-14 16:30N 68°52' E 015°31'510.7
2017-Jun-14 16:00N 68°57' E 015°36'5 9.3
2017-Jun-14 15:30N 68°59' E 015°48'610.9
2017-Jun-14 15:00N 69°02' E 015°60'1111.2
2017-Jun-14 13:59N 69°11' E 016°18'611.4
2017-Jun-14 13:30N 69°16' E 016°27'611.5
2017-Jun-14 13:00N 69°21' E 016°36'611.8
2017-Jun-14 12:30N 69°26' E 016°46'611.5
2017-Jun-14 12:00N 69°30' E 016°56'611.1
2017-Jun-14 11:30N 69°32' E 017°10'510.7
2017-Jun-14 11:00N 69°32' E 017°26'4 8.7
2017-Jun-14 10:30N 69°29' E 017°34'0 0.0
2017-Jun-14 10:00N 69°29' E 017°34'0 0.0
2017-Jun-14 09:30N 69°29' E 017°34'0 0.0
2017-Jun-14 09:00N 69°29' E 017°34'4 7.7
2017-Jun-14 08:30N 69°32' E 017°27'510.5
2017-Jun-14 08:00N 69°32' E 017°12'610.8
2017-Jun-14 07:29N 69°30' E 016°57'510.8
2017-Jun-14 07:00N 69°26' E 016°49'611.2
2017-Jun-14 06:30N 69°20' E 016°50'611.3
2017-Jun-14 06:00N 69°15' E 016°51'611.2
2017-Jun-14 05:30N 69°09' E 016°45'511.1
2017-Jun-14 05:00N 69°04' E 016°44'510.7
2017-Jun-14 04:30N 68°59' E 016°52'610.8
2017-Jun-14 04:00N 68°55' E 017°01'511.0
2017-Jun-14 03:30N 68°50' E 017°08'510.4
2017-Jun-14 03:00N 68°45' E 017°11'2 3.7
2017-Jun-14 02:30N 68°43' E 017°09'0 0.0
2017-Jun-14 01:59N 68°43' E 017°09'0 0.0
2017-Jun-14 01:30N 68°43' E 017°09'2 4.8
2017-Jun-14 01:00N 68°42' E 017°04'0 0.5
2017-Jun-14 00:30N 68°42' E 017°03'0 0.0
2017-Jun-14 00:00N 68°42' E 017°03'2 3.5
2017-Jun-13 23:30N 68°43' E 017°02'510.1
2017-Jun-13 23:00N 68°43' E 016°48'510.8
2017-Jun-13 22:30N 68°48' E 016°46'510.9
2017-Jun-13 22:00N 68°54' E 016°46'2 4.8
2017-Jun-13 21:30N 68°56' E 016°43'0 0.0
2017-Jun-13 21:00N 68°56' E 016°43'0 0.0
2017-Jun-13 20:30N 68°56' E 016°43'4 7.8
2017-Jun-13 20:00N 68°53' E 016°37'510.1
2017-Jun-13 19:30N 68°54' E 016°23'510.7
2017-Jun-13 19:00N 68°57' E 016°12'510.3
2017-Jun-13 18:30N 68°58' E 015°58'510.3
2017-Jun-13 18:00N 68°59' E 015°44'4 9.0
2017-Jun-13 17:30N 68°56' E 015°35'510.0
2017-Jun-13 16:59N 68°51' E 015°29'510.5
2017-Jun-13 16:30N 68°46' E 015°26'510.1
2017-Jun-13 16:00N 68°41' E 015°26'510.3
2017-Jun-13 15:30N 68°37' E 015°16'510.2
2017-Jun-13 15:00N 68°35' E 015°04'2 4.9
2017-Jun-13 14:30N 68°34' E 014°57'0 0.0
2017-Jun-13 13:30N 68°34' E 014°57'0 0.0
2017-Jun-13 13:00N 68°34' E 014°57'0 0.0
2017-Jun-13 12:30N 68°34' E 014°57'0 0.0
2017-Jun-13 12:00N 68°34' E 014°57'0 0.0
2017-Jun-13 11:30N 68°34' E 014°57'0 0.0
2017-Jun-13 11:00N 68°34' E 014°57'0 0.0
2017-Jun-13 10:30N 68°34' E 014°57'4 8.7
2017-Jun-13 10:00N 68°35' E 015°09'611.6
2017-Jun-13 09:30N 68°39' E 015°21'510.0
2017-Jun-13 09:00N 68°44' E 015°26'  

Dump ship's entire track history